Time,TemperatureF,DewpointF,PressureIn,WindDirection,WindDirectionDegrees,WindSpeedMPH,WindSpeedGustMPH,Humidity,HourlyPrecipIn,Conditions,Clouds,dailyrainin,SoftwareType,DateUTC
2013-05-14 00:01:00,41.1,35.1,30.03,SW,215,0.0,0.0,79,0.00,CLR,,0.00,WeatherDisplay:10.37,2013-05-14 04:01:00,
2013-05-14 00:02:00,41.0,35.0,30.03,SW,215,0.0,0.0,79,0.00,CLR,,0.00,WeatherDisplay:10.37,2013-05-14 04:02:00,
2013-05-14 00:03:00,41.0,34.7,30.03,SW,215,0.0,0.0,78,0.00,CLR,,0.00,WeatherDisplay:10.37,2013-05-14 04:03:00,
2013-05-14 00:08:00,41.1,34.1,30.03,SW,215,0.0,0.0,76,0.00,CLR,,0.00,WeatherDisplay:10.37,2013-05-14 04:08:00,
2013-05-14 00:10:00,41.1,34.4,30.03,SW,215,0.0,0.0,77,0.00,CLR,,0.00,WeatherDisplay:10.37,2013-05-14 04:10:00,
2013-05-14 00:15:00,41.5,36.4,30.03,SW,215,0.0,0.0,82,0.00,CLR,,0.00,WeatherDisplay:10.37,2013-05-14 04:15:00,
2013-05-14 00:20:00,41.5,35.8,30.03,SW,215,0.0,0.0,80,0.00,CLR,,0.00,WeatherDisplay:10.37,2013-05-14 04:20:00,
2013-05-14 00:25:00,41.5,36.4,30.03,SW,215,0.0,0.0,82,0.00,CLR,,0.00,WeatherDisplay:10.37,2013-05-14 04:25:00,
2013-05-14 00:30:00,41.5,36.7,30.03,SW,215,0.0,0.0,83,0.00,CLR,,0.00,WeatherDisplay:10.37,2013-05-14 04:30:00,
2013-05-14 00:35:00,41.3,36.5,30.03,SW,215,0.0,0.0,83,0.00,CLR,,0.00,WeatherDisplay:10.37,2013-05-14 04:35:00,
2013-05-14 00:40:00,41.1,35.4,30.03,SW,215,0.0,0.0,80,0.00,CLR,,0.00,WeatherDisplay:10.37,2013-05-14 04:40:00,
2013-05-14 00:45:00,41.1,35.1,30.03,SW,215,0.0,0.0,79,0.00,CLR,,0.00,WeatherDisplay:10.37,2013-05-14 04:45:00,
2013-05-14 00:50:00,41.2,35.5,30.03,SW,215,0.0,0.0,80,0.00,CLR,,0.00,WeatherDisplay:10.37,2013-05-14 04:50:00,
2013-05-14 00:55:00,41.1,35.4,30.03,SW,215,0.0,0.0,80,0.00,CLR,,0.00,WeatherDisplay:10.37,2013-05-14 04:55:00,
2013-05-14 01:00:00,41.0,34.3,30.02,SW,215,0.0,0.0,77,0.00,CLR,,0.00,WeatherDisplay:10.37,2013-05-14 05:00:00,
2013-05-14 01:05:00,41.1,34.8,30.02,SW,215,0.0,0.0,78,0.00,CLR,,0.00,WeatherDisplay:10.37,2013-05-14 05:05:00,
2013-05-14 01:10:00,41.1,35.1,30.02,SW,215,0.0,0.0,79,0.00,CLR,,0.00,WeatherDisplay:10.37,2013-05-14 05:10:00,
2013-05-14 01:15:00,41.3,36.2,30.02,SW,215,0.0,0.0,82,0.00,CLR,,0.00,WeatherDisplay:10.37,2013-05-14 05:15:00,
2013-05-14 01:20:00,41.1,34.4,30.02,SW,215,0.0,0.0,77,0.00,CLR,,0.00,WeatherDisplay:10.37,2013-05-14 05:20:00,
2013-05-14 01:25:00,41.0,33.7,30.02,SW,215,0.0,0.0,75,0.00,CLR,,0.00,WeatherDisplay:10.37,2013-05-14 05:25:00,
2013-05-14 01:30:00,41.1,33.4,30.02,SW,215,0.0,0.0,74,0.00,CLR,,0.00,WeatherDisplay:10.37,2013-05-14 05:30:00,
2013-05-14 01:35:00,41.2,34.2,30.02,SW,215,0.0,0.0,76,0.00,CLR,,0.00,WeatherDisplay:10.37,2013-05-14 05:35:00,
2013-05-14 01:40:00,41.4,36.0,30.02,SW,215,0.0,0.0,81,0.00,CLR,,0.00,WeatherDisplay:10.37,2013-05-14 05:40:00,
2013-05-14 01:45:00,41.4,36.0,30.02,SW,215,0.0,0.0,81,0.00,CLR,,0.00,WeatherDisplay:10.37,2013-05-14 05:45:00,
2013-05-14 01:50:00,41.4,35.1,30.01,SW,215,0.0,0.0,78,0.00,CLR,,0.00,WeatherDisplay:10.37,2013-05-14 05:50:00,
2013-05-14 01:55:00,41.4,35.4,30.01,SW,215,0.0,0.0,79,0.00,CLR,,0.00,WeatherDisplay:10.37,2013-05-14 05:55:00,
2013-05-14 02:00:00,41.4,35.4,30.01,SW,215,0.0,0.0,79,0.00,CLR,,0.00,WeatherDisplay:10.37,2013-05-14 06:00:00,
2013-05-14 02:05:00,41.4,36.3,30.01,SW,215,0.0,0.0,82,0.00,CLR,,0.00,WeatherDisplay:10.37,2013-05-14 06:05:00,
2013-05-14 02:10:00,41.4,36.0,30.01,SW,215,0.0,0.0,81,0.00,CLR,,0.00,WeatherDisplay:10.37,2013-05-14 06:10:00,
2013-05-14 02:15:00,41.3,36.2,30.01,SW,215,0.0,0.0,82,0.00,CLR,,0.00,WeatherDisplay:10.37,2013-05-14 06:15:00,
2013-05-14 02:20:00,41.2,36.4,30.01,SW,215,0.0,0.0,83,0.00,CLR,,0.00,WeatherDisplay:10.37,2013-05-14 06:20:00,
2013-05-14 02:25:00,41.2,36.7,30.01,SW,215,1.0,0.0,84,0.00,CLR,,0.00,WeatherDisplay:10.37,2013-05-14 06:25:00,
2013-05-14 02:30:00,41.3,34.3,30.01,SW,215,1.1,1.1,76,0.00,CLR,,0.00,WeatherDisplay:10.37,2013-05-14 06:30:00,
2013-05-14 02:35:00,41.6,34.3,30.02,SW,215,0.0,0.0,75,0.00,CLR,,0.00,WeatherDisplay:10.37,2013-05-14 06:35:00,
2013-05-14 02:40:00,41.9,34.2,30.02,SW,215,0.0,0.0,74,0.00,CLR,,0.00,WeatherDisplay:10.37,2013-05-14 06:40:00,
2013-05-14 02:45:00,42.3,35.3,30.02,SW,215,3.0,3.0,76,0.00,CLR,,0.00,WeatherDisplay:10.37,2013-05-14 06:45:00,
2013-05-14 02:50:00,42.4,35.0,30.02,SW,215,0.0,0.0,75,0.00,CLR,,0.00,WeatherDisplay:10.37,2013-05-14 06:50:00,
2013-05-14 02:55:00,42.6,34.2,30.02,SW,214,0.0,0.0,72,0.00,CLR,,0.00,WeatherDisplay:10.37,2013-05-14 06:55:00,
2013-05-14 03:00:00,42.8,33.7,30.02,SSW,213,2.3,2.3,70,0.00,CLR,,0.00,WeatherDisplay:10.37,2013-05-14 07:00:00,
2013-05-14 03:05:00,43.0,34.2,30.02,SSW,213,0.0,0.0,71,0.00,CLR,,0.00,WeatherDisplay:10.37,2013-05-14 07:05:00,
2013-05-14 03:10:00,43.1,33.3,30.02,SSW,213,0.0,0.0,68,0.00,CLR,,0.00,WeatherDisplay:10.37,2013-05-14 07:10:00,
2013-05-14 03:15:00,43.1,33.3,30.02,SSW,213,0.0,0.0,68,0.00,CLR,,0.00,WeatherDisplay:10.37,2013-05-14 07:15:00,
2013-05-14 03:20:00,43.2,33.0,30.02,SSW,213,0.0,0.0,67,0.00,CLR,,0.00,WeatherDisplay:10.37,2013-05-14 07:20:00,
2013-05-14 03:25:00,43.2,33.0,30.02,SSW,213,0.0,0.0,67,0.00,CLR,,0.00,WeatherDisplay:10.37,2013-05-14 07:25:00,
2013-05-14 03:30:00,43.2,33.0,30.01,SSW,213,0.0,0.0,67,0.00,CLR,,0.00,WeatherDisplay:10.37,2013-05-14 07:30:00,
2013-05-14 03:35:00,43.1,33.3,30.01,SSW,213,0.0,0.0,68,0.00,CLR,,0.00,WeatherDisplay:10.37,2013-05-14 07:35:00,
2013-05-14 03:40:00,43.0,33.9,30.01,SSW,213,0.0,0.0,70,0.00,CLR,,0.00,WeatherDisplay:10.37,2013-05-14 07:40:00,
2013-05-14 03:45:00,42.9,34.8,30.01,SSW,213,0.0,0.0,73,0.00,CLR,,0.00,WeatherDisplay:10.37,2013-05-14 07:45:00,
2013-05-14 03:50:00,42.8,34.7,30.00,SSW,213,1.1,1.1,73,0.00,CLR,,0.00,WeatherDisplay:10.37,2013-05-14 07:50:00,
2013-05-14 03:55:00,42.7,35.7,30.00,SSW,213,0.0,0.0,76,0.00,CLR,,0.00,WeatherDisplay:10.37,2013-05-14 07:55:00,
2013-05-14 04:00:00,42.6,35.9,30.00,SSW,213,0.0,0.0,77,0.00,CLR,,0.00,WeatherDisplay:10.37,2013-05-14 08:00:00,
2013-05-14 04:05:00,42.5,35.8,30.00,SSW,213,0.0,0.0,77,0.00,CLR,,0.00,WeatherDisplay:10.37,2013-05-14 08:05:00,
2013-05-14 04:10:00,42.5,35.1,29.99,SSW,213,0.0,0.0,75,0.00,CLR,,0.00,WeatherDisplay:10.37,2013-05-14 08:10:00,
2013-05-14 04:15:00,42.5,34.5,29.99,SSW,213,0.0,0.0,73,0.00,CLR,,0.00,WeatherDisplay:10.37,2013-05-14 08:15:00,
2013-05-14 04:20:00,42.5,34.8,29.98,SSW,213,0.0,0.1,74,0.00,CLR,,0.00,WeatherDisplay:10.37,2013-05-14 08:20:00,
2013-05-14 04:25:00,42.5,35.8,29.98,SSW,213,1.1,0.0,77,0.00,CLR,,0.00,WeatherDisplay:10.37,2013-05-14 08:25:00,
2013-05-14 04:30:00,42.5,36.1,29.98,SSW,213,0.0,0.0,78,0.00,CLR,,0.00,WeatherDisplay:10.37,2013-05-14 08:30:00,
2013-05-14 04:35:00,42.4,36.0,29.98,SSW,213,0.0,0.0,78,0.00,CLR,,0.00,WeatherDisplay:10.37,2013-05-14 08:35:00,
2013-05-14 04:40:00,42.4,36.0,29.98,SSW,213,0.0,0.0,78,0.00,CLR,,0.00,WeatherDisplay:10.37,2013-05-14 08:40:00,
2013-05-14 04:45:00,42.3,35.9,29.98,SSW,213,0.0,0.0,78,0.00,CLR,,0.00,WeatherDisplay:10.37,2013-05-14 08:45:00,
2013-05-14 04:50:00,42.3,36.3,29.97,SSW,213,0.0,0.0,79,0.00,CLR,,0.00,WeatherDisplay:10.37,2013-05-14 08:50:00,
2013-05-14 04:55:00,42.3,36.9,29.97,SSW,213,2.3,2.3,81,0.00,CLR,,0.00,WeatherDisplay:10.37,2013-05-14 08:55:00,
2013-05-14 05:00:00,42.3,35.3,29.96,SSW,213,1.1,0.0,76,0.00,CLR,,0.00,WeatherDisplay:10.37,2013-05-14 09:00:00,
2013-05-14 05:05:00,42.5,34.8,29.96,SSW,209,3.5,0.0,74,0.00,CLR,,0.00,WeatherDisplay:10.37,2013-05-14 09:05:00,
2013-05-14 05:10:00,42.7,34.3,29.96,SSW,209,0.0,0.0,72,0.00,CLR,,0.00,WeatherDisplay:10.37,2013-05-14 09:10:00,
2013-05-14 05:15:00,42.8,34.0,29.95,SSW,205,2.0,2.0,71,0.00,CLR,,0.00,WeatherDisplay:10.37,2013-05-14 09:15:00,
2013-05-14 05:20:00,43.0,33.9,29.94,SSW,197,1.1,0.0,70,0.00,CLR,,0.00,WeatherDisplay:10.37,2013-05-14 09:20:00,
2013-05-14 05:25:00,43.1,33.6,29.94,SSW,197,0.0,0.0,69,0.00,CLR,,0.00,WeatherDisplay:10.37,2013-05-14 09:25:00,
2013-05-14 05:30:00,43.2,33.0,29.94,SSW,197,1.1,1.1,67,0.00,CLR,,0.00,WeatherDisplay:10.37,2013-05-14 09:30:00,
2013-05-14 05:35:00,43.3,33.1,29.93,SSW,196,0.0,0.1,67,0.00,CLR,,0.00,WeatherDisplay:10.37,2013-05-14 09:35:00,
2013-05-14 05:40:00,43.4,33.2,29.93,SE,137,3.5,3.5,67,0.00,CLR,,0.00,WeatherDisplay:10.37,2013-05-14 09:40:00,
2013-05-14 05:45:00,43.5,32.9,29.92,SE,146,3.5,3.5,66,0.00,CLR,,0.00,WeatherDisplay:10.37,2013-05-14 09:45:00,
2013-05-14 05:50:00,43.6,33.7,29.93,SE,146,0.0,0.1,68,0.00,CLR,,0.00,WeatherDisplay:10.37,2013-05-14 09:50:00,
2013-05-14 05:55:00,43.7,33.1,29.93,SE,145,1.1,0.0,66,0.00,CLR,,0.00,WeatherDisplay:10.37,2013-05-14 09:55:00,
2013-05-14 06:00:00,43.7,33.5,29.93,SE,143,2.3,2.3,67,0.00,CLR,,0.00,WeatherDisplay:10.37,2013-05-14 10:00:00,
2013-05-14 06:05:00,43.7,33.1,29.92,SE,140,0.0,0.0,66,0.00,CLR,,0.00,WeatherDisplay:10.37,2013-05-14 10:05:00,
2013-05-14 06:10:00,43.8,33.2,29.92,ESE,119,0.0,0.0,66,0.00,CLR,,0.00,WeatherDisplay:10.37,2013-05-14 10:10:00,
2013-05-14 06:15:00,43.8,33.2,29.92,ESE,120,0.0,0.0,66,0.00,CLR,,0.00,WeatherDisplay:10.37,2013-05-14 10:15:00,
2013-05-14 06:20:00,43.8,32.8,29.92,SSE,157,5.8,5.8,65,0.00,CLR,,0.00,WeatherDisplay:10.37,2013-05-14 10:20:00,
2013-05-14 06:25:00,43.8,33.2,29.92,SSE,157,2.0,2.0,66,0.00,CLR,,0.00,WeatherDisplay:10.37,2013-05-14 10:25:00,
2013-05-14 06:30:00,43.9,33.3,29.92,SSE,149,3.5,3.5,66,0.00,CLR,,0.00,WeatherDisplay:10.37,2013-05-14 10:30:00,
2013-05-14 06:35:00,43.9,33.3,29.92,SSE,150,0.0,0.0,66,0.00,CLR,,0.00,WeatherDisplay:10.37,2013-05-14 10:35:00,
2013-05-14 06:40:00,44.0,33.0,29.93,SSE,150,1.1,1.1,65,0.00,CLR,,0.00,WeatherDisplay:10.37,2013-05-14 10:40:00,
2013-05-14 06:45:00,44.0,33.4,29.93,SSE,148,1.1,0.0,66,0.00,CLR,,0.00,WeatherDisplay:10.37,2013-05-14 10:45:00,
2013-05-14 06:50:00,44.1,34.2,29.92,SSE,148,1.1,1.1,68,0.00,CLR,,0.00,WeatherDisplay:10.37,2013-05-14 10:50:00,
2013-05-14 06:55:00,44.1,33.8,29.92,SE,127,0.0,0.0,67,0.00,CLR,,0.00,WeatherDisplay:10.37,2013-05-14 10:55:00,
2013-05-14 07:00:00,44.2,33.2,29.93,SE,130,4.6,4.6,65,0.00,CLR,,0.00,WeatherDisplay:10.37,2013-05-14 11:00:00,
2013-05-14 07:05:00,44.2,33.9,29.93,SE,130,0.0,0.0,67,0.00,CLR,,0.00,WeatherDisplay:10.37,2013-05-14 11:05:00,
2013-05-14 07:10:00,44.3,33.7,29.92,SE,129,1.1,1.1,66,0.00,CLR,,0.00,WeatherDisplay:10.37,2013-05-14 11:10:00,
2013-05-14 07:15:00,44.3,33.7,29.92,SE,130,0.0,0.0,66,0.00,CLR,,0.00,WeatherDisplay:10.37,2013-05-14 11:15:00,
2013-05-14 07:20:00,44.5,33.8,29.93,SE,130,0.0,0.0,66,0.00,CLR,,0.00,WeatherDisplay:10.37,2013-05-14 11:20:00,
2013-05-14 07:25:00,44.5,35.0,29.93,SE,129,0.0,0.0,69,0.00,CLR,,0.00,WeatherDisplay:10.37,2013-05-14 11:25:00,
2013-05-14 07:30:00,44.2,35.7,29.93,SE,132,0.0,0.0,72,0.01,RA,,0.01,WeatherDisplay:10.37,2013-05-14 11:30:00,
2013-05-14 07:35:00,43.6,37.2,29.94,SE,132,0.0,0.0,78,0.01,RA,,0.01,WeatherDisplay:10.37,2013-05-14 11:35:00,
2013-05-14 07:40:00,42.9,37.2,29.94,SE,132,0.0,0.0,80,0.01,,,0.01,WeatherDisplay:10.37,2013-05-14 11:40:00,
2013-05-14 07:45:00,42.3,37.2,29.95,SE,132,2.3,2.3,82,0.01,CLR,,0.01,WeatherDisplay:10.37,2013-05-14 11:45:00,
2013-05-14 07:50:00,42.2,37.4,29.95,SE,132,0.0,0.0,83,0.01,CLR,,0.01,WeatherDisplay:10.37,2013-05-14 11:50:00,
2013-05-14 07:55:00,42.1,37.6,29.95,SE,132,2.3,2.3,84,0.01,CLR,,0.01,WeatherDisplay:10.37,2013-05-14 11:55:00,
2013-05-14 08:01:00,42.2,37.7,29.93,SE,131,0.0,0.0,84,0.01,CLR,,0.01,WeatherDisplay:10.37,2013-05-14 12:01:00,
2013-05-14 08:06:00,42.3,37.8,29.93,SE,130,1.1,1.1,84,0.01,CLR,,0.01,WeatherDisplay:10.37,2013-05-14 12:06:00,
2013-05-14 08:11:00,42.5,37.4,29.92,ESE,122,3.5,3.5,82,0.01,CLR,,0.01,WeatherDisplay:10.37,2013-05-14 12:11:00,
2013-05-14 08:16:00,42.8,37.4,29.92,ESE,107,1.1,1.1,81,0.01,CLR,,0.01,WeatherDisplay:10.37,2013-05-14 12:16:00,
2013-05-14 08:21:00,43.2,37.4,29.92,SE,126,3.5,3.5,80,0.01,CLR,,0.01,WeatherDisplay:10.37,2013-05-14 12:21:00,
2013-05-14 08:26:00,43.4,37.3,29.91,ESE,121,3.5,3.5,79,0.01,CLR,,0.01,WeatherDisplay:10.37,2013-05-14 12:26:00,
2013-05-14 08:31:00,43.7,37.6,29.91,ESE,111,3.5,3.5,79,0.00,CLR,,0.01,WeatherDisplay:10.37,2013-05-14 12:31:00,
2013-05-14 08:36:00,44.0,37.6,29.91,ESE,108,3.5,3.5,78,0.00,CLR,,0.01,WeatherDisplay:10.37,2013-05-14 12:36:00,
2013-05-14 08:41:00,44.2,37.1,29.91,ESE,102,6.9,6.9,76,0.00,CLR,,0.01,WeatherDisplay:10.37,2013-05-14 12:41:00,
2013-05-14 08:46:00,44.4,37.3,29.91,East,101,3.5,3.5,76,0.00,CLR,,0.01,WeatherDisplay:10.37,2013-05-14 12:46:00,
2013-05-14 08:51:00,44.6,37.5,29.91,ESE,103,2.3,2.3,76,0.00,CLR,,0.01,WeatherDisplay:10.37,2013-05-14 12:51:00,
2013-05-14 08:56:00,44.9,37.8,29.91,ESE,102,0.0,0.0,76,0.00,CLR,,0.01,WeatherDisplay:10.37,2013-05-14 12:56:00,
2013-05-14 09:01:00,45.0,37.9,29.90,ESE,105,0.0,0.0,76,0.00,CLR,,0.01,WeatherDisplay:10.37,2013-05-14 13:01:00,
2013-05-14 09:06:00,45.2,37.4,29.90,ESE,103,4.6,4.6,74,0.00,CLR,,0.01,WeatherDisplay:10.37,2013-05-14 13:06:00,
2013-05-14 09:11:00,45.5,37.7,29.89,SE,133,1.1,0.0,74,0.00,CLR,,0.01,WeatherDisplay:10.37,2013-05-14 13:11:00,
2013-05-14 09:16:00,45.8,37.6,29.89,East,94,4.6,4.6,73,0.00,CLR,,0.01,WeatherDisplay:10.37,2013-05-14 13:16:00,
2013-05-14 09:21:00,46.1,37.2,29.89,East,91,3.5,3.5,71,0.00,CLR,,0.01,WeatherDisplay:10.37,2013-05-14 13:21:00,
2013-05-14 09:26:00,46.3,36.3,29.89,SE,134,5.8,5.8,68,0.00,CLR,,0.01,WeatherDisplay:10.37,2013-05-14 13:26:00,
2013-05-14 09:31:00,46.7,36.3,29.88,East,94,8.1,8.1,67,0.00,CLR,,0.01,WeatherDisplay:10.37,2013-05-14 13:31:00,
2013-05-14 09:36:00,47.0,35.8,29.87,East,97,12.7,12.7,65,0.00,CLR,,0.01,WeatherDisplay:10.37,2013-05-14 13:36:00,
2013-05-14 09:41:00,47.4,35.4,29.86,East,87,8.1,8.1,63,0.00,CLR,,0.01,WeatherDisplay:10.37,2013-05-14 13:41:00,
2013-05-14 09:46:00,47.5,35.9,29.86,SE,128,12.7,12.7,64,0.00,CLR,,0.01,WeatherDisplay:10.37,2013-05-14 13:46:00,
2013-05-14 09:51:00,47.7,35.3,29.86,ESE,107,4.6,4.6,62,0.00,CLR,,0.01,WeatherDisplay:10.37,2013-05-14 13:51:00,
2013-05-14 09:56:00,47.9,36.7,29.86,SE,141,0.0,0.0,65,0.00,CLR,,0.01,WeatherDisplay:10.37,2013-05-14 13:56:00,
2013-05-14 10:01:00,48.1,36.1,29.85,East,94,3.5,3.5,63,0.00,CLR,,0.01,WeatherDisplay:10.37,2013-05-14 14:01:00,
2013-05-14 10:06:00,48.2,36.6,29.85,East,87,5.8,5.8,64,0.00,CLR,,0.01,WeatherDisplay:10.37,2013-05-14 14:06:00,
2013-05-14 10:11:00,48.4,35.6,29.85,SE,130,6.9,6.9,61,0.00,CLR,,0.01,WeatherDisplay:10.37,2013-05-14 14:11:00,
2013-05-14 10:16:00,48.6,36.2,29.85,ESE,109,0.0,0.0,62,0.00,CLR,,0.01,WeatherDisplay:10.37,2013-05-14 14:16:00,
2013-05-14 10:21:00,48.8,35.9,29.85,SE,124,1.1,1.1,61,0.00,CLR,,0.01,WeatherDisplay:10.37,2013-05-14 14:21:00,
2013-05-14 10:26:00,49.0,36.1,29.84,SE,128,9.2,9.2,61,0.00,CLR,,0.01,WeatherDisplay:10.37,2013-05-14 14:26:00,
2013-05-14 10:31:00,49.2,35.9,29.84,SE,142,1.1,1.1,60,0.00,CLR,,0.01,WeatherDisplay:10.37,2013-05-14 14:31:00,
2013-05-14 10:36:00,49.5,35.8,29.84,ESE,111,9.2,9.2,59,0.00,CLR,,0.01,WeatherDisplay:10.37,2013-05-14 14:36:00,
2013-05-14 10:41:00,49.6,35.8,29.83,ESE,123,12.7,12.7,59,0.00,CLR,,0.01,WeatherDisplay:10.37,2013-05-14 14:41:00,
2013-05-14 10:46:00,49.7,35.9,29.83,SSE,157,4.6,4.6,59,0.00,CLR,,0.01,WeatherDisplay:10.37,2013-05-14 14:46:00,
2013-05-14 10:51:00,49.9,36.1,29.82,SE,146,5.8,5.8,59,0.00,CLR,,0.01,WeatherDisplay:10.37,2013-05-14 14:51:00,
2013-05-14 10:56:00,50.1,36.7,29.82,SE,131,10.4,10.4,60,0.00,CLR,,0.01,WeatherDisplay:10.37,2013-05-14 14:56:00,
2013-05-14 11:01:00,50.2,36.0,29.82,North,11,9.2,9.2,58,0.00,CLR,,0.01,WeatherDisplay:10.37,2013-05-14 15:01:00,
2013-05-14 11:06:00,50.4,36.6,29.82,ESE,117,8.1,8.1,59,0.00,CLR,,0.01,WeatherDisplay:10.37,2013-05-14 15:06:00,
2013-05-14 11:11:00,50.6,36.8,29.81,SSE,160,9.2,9.2,59,0.00,CLR,,0.01,WeatherDisplay:10.37,2013-05-14 15:11:00,
2013-05-14 11:16:00,50.9,37.1,29.81,ESE,121,1.1,0.0,59,0.00,CLR,,0.01,WeatherDisplay:10.37,2013-05-14 15:16:00,
2013-05-14 11:21:00,51.2,37.4,29.82,SE,129,2.3,2.3,59,0.00,CLR,,0.01,WeatherDisplay:10.37,2013-05-14 15:21:00,
2013-05-14 11:26:00,51.4,37.1,29.82,ESE,115,9.2,9.2,58,0.00,CLR,,0.01,WeatherDisplay:10.37,2013-05-14 15:26:00,
2013-05-14 11:31:00,51.3,37.0,29.81,SE,125,3.5,3.5,58,0.00,CLR,,0.01,WeatherDisplay:10.37,2013-05-14 15:31:00,
2013-05-14 11:36:00,52.0,37.7,29.81,ESE,122,7.0,7.0,58,0.00,CLR,,0.01,WeatherDisplay:10.37,2013-05-14 15:36:00,
2013-05-14 11:41:00,52.5,37.7,29.81,ESE,103,10.4,10.4,57,0.00,CLR,,0.01,WeatherDisplay:10.37,2013-05-14 15:41:00,
2013-05-14 11:46:00,52.6,37.8,29.82,SE,144,0.0,0.0,57,0.00,CLR,,0.01,WeatherDisplay:10.37,2013-05-14 15:46:00,
2013-05-14 11:51:00,53.3,38.4,29.82,SSW,196,9.2,9.2,57,0.00,CLR,,0.01,WeatherDisplay:10.37,2013-05-14 15:51:00,
2013-05-14 11:56:00,53.7,38.4,29.82,NE,34,9.2,9.2,56,0.00,CLR,,0.01,WeatherDisplay:10.37,2013-05-14 15:56:00,
2013-05-14 12:01:00,54.1,38.3,29.82,ESE,109,3.5,3.5,55,0.00,CLR,,0.01,WeatherDisplay:10.37,2013-05-14 16:01:00,
2013-05-14 12:06:00,54.4,38.1,29.82,ESE,106,9.2,9.2,54,0.00,CLR,,0.01,WeatherDisplay:10.37,2013-05-14 16:06:00,
2013-05-14 12:11:00,54.6,38.7,29.82,ESE,113,4.6,4.6,55,0.00,CLR,,0.01,WeatherDisplay:10.37,2013-05-14 16:11:00,
2013-05-14 12:16:00,55.4,38.5,29.82,SE,135,4.6,4.6,53,0.00,CLR,,0.01,WeatherDisplay:10.37,2013-05-14 16:16:00,
2013-05-14 12:21:00,55.6,37.7,29.83,South,177,5.8,5.8,51,0.00,CLR,,0.01,WeatherDisplay:10.37,2013-05-14 16:21:00,
2013-05-14 12:26:00,55.7,37.8,29.83,SSW,192,10.4,10.4,51,0.00,CLR,,0.01,WeatherDisplay:10.37,2013-05-14 16:26:00,
2013-05-14 12:31:00,55.8,38.4,29.82,SE,143,5.8,5.8,52,0.00,CLR,,0.01,WeatherDisplay:10.37,2013-05-14 16:31:00,
2013-05-14 12:36:00,56.3,38.9,29.82,SSE,158,6.9,6.9,52,0.00,CLR,,0.01,WeatherDisplay:10.37,2013-05-14 16:36:00,
2013-05-14 12:41:00,56.7,39.3,29.82,SE,141,3.5,3.5,52,0.00,CLR,,0.01,WeatherDisplay:10.37,2013-05-14 16:41:00,
2013-05-14 12:46:00,57.2,39.2,29.82,SSE,164,7.0,7.0,51,0.00,CLR,,0.01,WeatherDisplay:10.37,2013-05-14 16:46:00,
2013-05-14 12:51:00,57.1,39.1,29.82,SSE,156,4.6,4.6,51,0.00,CLR,,0.01,WeatherDisplay:10.37,2013-05-14 16:51:00,
2013-05-14 12:56:00,57.3,39.3,29.81,East,96,3.5,3.5,51,0.00,CLR,,0.01,WeatherDisplay:10.37,2013-05-14 16:56:00,
2013-05-14 13:01:00,58.3,41.7,29.82,SSW,196,6.9,6.9,54,0.00,CLR,,0.01,WeatherDisplay:10.37,2013-05-14 17:01:00,
2013-05-14 13:06:00,58.4,39.3,29.82,SSE,157,11.5,11.5,49,0.00,CLR,,0.01,WeatherDisplay:10.37,2013-05-14 17:06:00,
2013-05-14 13:11:00,58.3,39.7,29.82,SE,145,3.5,3.5,50,0.00,CLR,,0.01,WeatherDisplay:10.37,2013-05-14 17:11:00,
2013-05-14 13:16:00,59.0,40.4,29.81,ESE,113,4.6,4.6,50,0.00,CLR,,0.01,WeatherDisplay:10.37,2013-05-14 17:16:00,
2013-05-14 13:21:00,58.7,39.6,29.80,SSW,195,10.4,10.4,49,0.00,CLR,,0.01,WeatherDisplay:10.37,2013-05-14 17:21:00,
2013-05-14 13:26:00,59.0,39.9,29.80,SE,133,2.3,2.3,49,0.00,CLR,,0.01,WeatherDisplay:10.37,2013-05-14 17:26:00,
2013-05-14 13:31:00,59.0,40.4,29.80,ESE,121,11.5,11.5,50,0.00,CLR,,0.01,WeatherDisplay:10.37,2013-05-14 17:31:00,
2013-05-14 13:36:00,59.0,40.4,29.80,SSE,152,9.2,9.2,50,0.00,CLR,,0.01,WeatherDisplay:10.37,2013-05-14 17:36:00,
2013-05-14 13:41:00,59.0,40.4,29.80,South,169,10.4,10.4,50,0.00,CLR,,0.01,WeatherDisplay:10.37,2013-05-14 17:41:00,
2013-05-14 13:46:00,59.0,40.4,29.80,SSE,153,3.5,3.5,50,0.00,CLR,,0.01,WeatherDisplay:10.37,2013-05-14 17:46:00,
2013-05-14 13:51:00,59.9,41.7,29.79,ENE,76,3.5,3.5,51,0.00,CLR,,0.01,WeatherDisplay:10.37,2013-05-14 17:51:00,
2013-05-14 13:56:00,59.9,40.7,29.79,SW,223,10.4,10.4,49,0.00,CLR,,0.01,WeatherDisplay:10.37,2013-05-14 17:56:00,
2013-05-14 14:01:00,60.5,41.2,29.79,SSW,195,9.0,9.0,49,0.00,CLR,,0.01,WeatherDisplay:10.37,2013-05-14 18:01:00,
2013-05-14 14:06:00,60.6,41.3,29.79,SSE,165,10.4,10.4,49,0.00,CLR,,0.01,WeatherDisplay:10.37,2013-05-14 18:06:00,
2013-05-14 14:11:00,60.9,42.1,29.79,SE,138,3.5,3.5,50,0.00,CLR,,0.01,WeatherDisplay:10.37,2013-05-14 18:11:00,
2013-05-14 14:16:00,61.9,43.6,29.79,SW,232,0.0,0.0,51,0.00,CLR,,0.01,WeatherDisplay:10.37,2013-05-14 18:16:00,
2013-05-14 14:21:00,62.3,42.3,29.78,WSW,240,3.5,3.5,48,0.00,CLR,,0.01,WeatherDisplay:10.37,2013-05-14 18:21:00,
2013-05-14 14:26:00,62.3,43.4,29.79,South,177,2.3,2.3,50,0.00,CLR,,0.01,WeatherDisplay:10.37,2013-05-14 18:26:00,
2013-05-14 14:31:00,62.5,43.6,29.79,ESE,107,0.0,0.0,50,0.00,CLR,,0.01,WeatherDisplay:10.37,2013-05-14 18:31:00,
2013-05-14 14:36:00,63.1,43.6,29.78,SSE,150,3.5,3.5,49,0.00,CLR,,0.01,WeatherDisplay:10.37,2013-05-14 18:36:00,
2013-05-14 14:41:00,63.4,42.8,29.77,South,182,5.8,5.8,47,0.00,CLR,,0.01,WeatherDisplay:10.37,2013-05-14 18:41:00,
2013-05-14 14:46:00,63.0,43.0,29.78,East,88,3.5,3.5,48,0.00,CLR,,0.01,WeatherDisplay:10.37,2013-05-14 18:46:00,
2013-05-14 14:51:00,62.9,42.9,29.77,NE,53,3.5,3.5,48,0.00,CLR,,0.01,WeatherDisplay:10.37,2013-05-14 18:51:00,
2013-05-14 14:56:00,62.9,42.9,29.77,ESE,111,5.0,5.0,48,0.00,CLR,,0.01,WeatherDisplay:10.37,2013-05-14 18:56:00,
2013-05-14 15:01:00,62.8,42.8,29.77,SE,136,6.9,6.9,48,0.00,CLR,,0.01,WeatherDisplay:10.37,2013-05-14 19:01:00,
2013-05-14 15:06:00,62.9,42.9,29.78,SE,138,4.6,4.6,48,0.00,CLR,,0.01,WeatherDisplay:10.37,2013-05-14 19:06:00,
2013-05-14 15:11:00,62.9,43.4,29.78,ENE,71,3.5,3.5,49,0.00,CLR,,0.01,WeatherDisplay:10.37,2013-05-14 19:11:00,
2013-05-14 15:16:00,63.7,44.7,29.79,East,80,0.0,0.0,50,0.00,CLR,,0.01,WeatherDisplay:10.37,2013-05-14 19:16:00,
2013-05-14 15:21:00,64.0,44.4,29.78,ENE,77,3.5,3.5,49,0.00,CLR,,0.01,WeatherDisplay:10.37,2013-05-14 19:21:00,
2013-05-14 15:26:00,63.9,43.8,29.77,SE,130,0.0,0.0,48,0.00,CLR,,0.01,WeatherDisplay:10.37,2013-05-14 19:26:00,
2013-05-14 15:31:00,64.2,44.1,29.77,SE,130,3.5,3.5,48,0.00,CLR,,0.01,WeatherDisplay:10.37,2013-05-14 19:31:00,
2013-05-14 15:36:00,64.0,45.0,29.77,SE,125,0.0,0.0,50,0.00,CLR,,0.01,WeatherDisplay:10.37,2013-05-14 19:36:00,
2013-05-14 15:41:00,64.1,44.5,29.77,ESE,108,3.5,3.5,49,0.00,CLR,,0.01,WeatherDisplay:10.37,2013-05-14 19:41:00,
2013-05-14 15:46:00,63.9,44.9,29.76,ENE,61,1.1,1.1,50,0.00,CLR,,0.01,WeatherDisplay:10.37,2013-05-14 19:46:00,
2013-05-14 15:51:00,64.0,45.0,29.75,ESE,110,3.5,3.5,50,0.00,CLR,,0.01,WeatherDisplay:10.37,2013-05-14 19:51:00,
2013-05-14 15:56:00,63.9,44.4,29.75,ENE,59,4.6,4.6,49,0.00,CLR,,0.01,WeatherDisplay:10.37,2013-05-14 19:56:00,
2013-05-14 16:01:00,63.7,45.2,29.75,NE,53,0.0,0.0,51,0.00,CLR,,0.01,WeatherDisplay:10.37,2013-05-14 20:01:00,
2013-05-14 16:06:00,63.7,45.2,29.75,East,101,3.5,3.5,51,0.00,CLR,,0.01,WeatherDisplay:10.37,2013-05-14 20:06:00,
2013-05-14 16:11:00,63.9,45.9,29.74,East,92,0.0,0.0,52,0.00,CLR,,0.01,WeatherDisplay:10.37,2013-05-14 20:11:00,
2013-05-14 16:16:00,63.7,44.7,29.75,East,89,3.5,3.5,50,0.00,CLR,,0.01,WeatherDisplay:10.37,2013-05-14 20:16:00,
2013-05-14 16:21:00,63.4,45.5,29.76,ENE,59,4.6,4.6,52,0.00,CLR,,0.01,WeatherDisplay:10.37,2013-05-14 20:21:00,
2013-05-14 16:26:00,63.2,46.3,29.77,East,88,3.5,3.5,54,0.00,CLR,,0.01,WeatherDisplay:10.37,2013-05-14 20:26:00,
2013-05-14 16:31:00,63.0,46.6,29.76,NE,51,0.0,0.0,55,0.00,CLR,,0.01,WeatherDisplay:10.37,2013-05-14 20:31:00,
2013-05-14 16:36:00,62.9,47.0,29.76,NE,54,4.6,4.6,56,0.00,CLR,,0.01,WeatherDisplay:10.37,2013-05-14 20:36:00,
2013-05-14 16:41:00,62.2,46.8,29.75,East,79,1.1,1.1,57,0.00,CLR,,0.01,WeatherDisplay:10.37,2013-05-14 20:41:00,
2013-05-14 16:46:00,62.1,47.1,29.76,ENE,72,3.5,3.5,58,0.00,CLR,,0.01,WeatherDisplay:10.37,2013-05-14 20:46:00,
2013-05-14 16:51:00,61.8,46.9,29.75,East,94,0.0,0.0,58,0.00,CLR,,0.01,WeatherDisplay:10.37,2013-05-14 20:51:00,
2013-05-14 16:56:00,61.7,46.8,29.76,ENE,63,3.5,3.5,58,0.00,CLR,,0.01,WeatherDisplay:10.37,2013-05-14 20:56:00,
2013-05-14 17:01:00,61.3,47.3,29.75,ESE,109,0.0,0.3,60,0.00,CLR,,0.01,WeatherDisplay:10.37,2013-05-14 21:01:00,
2013-05-14 17:06:00,61.1,46.7,29.75,East,96,4.6,4.6,59,0.00,CLR,,0.01,WeatherDisplay:10.37,2013-05-14 21:06:00,
2013-05-14 17:11:00,60.7,46.3,29.75,ENE,63,6.9,6.9,59,0.00,CLR,,0.01,WeatherDisplay:10.37,2013-05-14 21:11:00,
2013-05-14 17:16:00,60.9,47.4,29.75,NE,40,3.5,3.5,61,0.00,CLR,,0.01,WeatherDisplay:10.37,2013-05-14 21:16:00,
2013-05-14 17:21:00,60.7,46.7,29.76,East,88,1.1,0.0,60,0.00,CLR,,0.01,WeatherDisplay:10.37,2013-05-14 21:21:00,
2013-05-14 17:26:00,60.6,46.6,29.76,ESE,102,6.9,6.9,60,0.00,CLR,,0.01,WeatherDisplay:10.37,2013-05-14 21:26:00,
2013-05-14 17:31:00,60.0,46.1,29.76,East,82,5.8,5.8,60,0.00,CLR,,0.01,WeatherDisplay:10.37,2013-05-14 21:31:00,
2013-05-14 17:36:00,59.9,46.8,29.75,East,93,2.3,2.3,62,0.00,CLR,,0.01,WeatherDisplay:10.37,2013-05-14 21:36:00,
2013-05-14 17:41:00,59.8,46.7,29.75,NE,51,1.1,0.0,62,0.00,CLR,,0.01,WeatherDisplay:10.37,2013-05-14 21:41:00,
2013-05-14 17:46:00,59.9,46.8,29.75,East,98,2.3,2.3,62,0.00,CLR,,0.01,WeatherDisplay:10.37,2013-05-14 21:46:00,
2013-05-14 17:51:00,60.0,46.9,29.75,East,87,3.5,3.5,62,0.00,CLR,,0.01,WeatherDisplay:10.37,2013-05-14 21:51:00,
2013-05-14 17:56:00,60.2,47.1,29.75,East,84,4.0,4.0,62,0.00,CLR,,0.01,WeatherDisplay:10.37,2013-05-14 21:56:00,
2013-05-14 18:01:00,60.1,46.6,29.75,ENE,60,8.1,8.1,61,0.00,CLR,,0.01,WeatherDisplay:10.37,2013-05-14 22:01:00,
2013-05-14 18:06:00,59.9,46.0,29.75,SE,132,6.9,6.9,60,0.00,CLR,,0.01,WeatherDisplay:10.37,2013-05-14 22:06:00,
2013-05-14 18:11:00,59.8,46.3,29.75,NNE,16,4.0,4.0,61,0.00,CLR,,0.01,WeatherDisplay:10.37,2013-05-14 22:11:00,
2013-05-14 18:16:00,59.8,45.9,29.75,ENE,71,4.6,4.6,60,0.00,CLR,,0.01,WeatherDisplay:10.37,2013-05-14 22:16:00,
2013-05-14 18:21:00,59.6,46.6,29.75,East,93,6.9,6.9,62,0.00,CLR,,0.01,WeatherDisplay:10.37,2013-05-14 22:21:00,
2013-05-14 18:26:00,59.3,45.8,29.75,NE,51,11.5,11.5,61,0.00,CLR,,0.01,WeatherDisplay:10.37,2013-05-14 22:26:00,
2013-05-14 18:31:00,59.4,46.4,29.75,ENE,65,1.1,1.1,62,0.00,CLR,,0.01,WeatherDisplay:10.37,2013-05-14 22:31:00,
2013-05-14 18:36:00,59.7,46.7,29.75,ENE,71,3.5,0.0,62,0.00,CLR,,0.01,WeatherDisplay:10.37,2013-05-14 22:36:00,
2013-05-14 18:41:00,59.9,46.4,29.75,ENE,65,1.0,1.0,61,0.00,CLR,,0.01,WeatherDisplay:10.37,2013-05-14 22:41:00,
2013-05-14 18:46:00,59.8,45.9,29.75,NE,46,5.8,5.8,60,0.00,CLR,,0.01,WeatherDisplay:10.37,2013-05-14 22:46:00,
2013-05-14 18:51:00,59.5,46.0,29.75,East,83,1.1,1.1,61,0.00,CLR,,0.01,WeatherDisplay:10.37,2013-05-14 22:51:00,
2013-05-14 18:56:00,59.5,46.0,29.74,ENE,71,5.8,5.8,61,0.00,CLR,,0.01,WeatherDisplay:10.37,2013-05-14 22:56:00,
2013-05-14 19:01:00,59.4,46.4,29.74,ENE,58,0.0,0.0,62,0.00,CLR,,0.01,WeatherDisplay:10.37,2013-05-14 23:01:00,
2013-05-14 19:06:00,59.0,45.6,29.74,ENE,63,3.0,3.0,61,0.00,CLR,,0.01,WeatherDisplay:10.37,2013-05-14 23:06:00,
2013-05-14 19:11:00,59.0,45.6,29.74,NE,47,4.6,4.6,61,0.00,CLR,,0.01,WeatherDisplay:10.37,2013-05-14 23:11:00,
2013-05-14 19:16:00,58.9,45.5,29.73,ESE,103,4.6,4.6,61,0.00,CLR,,0.01,WeatherDisplay:10.37,2013-05-14 23:16:00,
2013-05-14 19:21:00,58.8,45.8,29.73,ESE,109,4.0,4.0,62,0.00,CLR,,0.01,WeatherDisplay:10.37,2013-05-14 23:21:00,
2013-05-14 19:26:00,59.0,46.4,29.73,ESE,117,1.1,0.0,63,0.00,CLR,,0.01,WeatherDisplay:10.37,2013-05-14 23:26:00,
2013-05-14 19:31:00,58.9,46.3,29.73,ENE,64,2.3,2.3,63,0.00,CLR,,0.01,WeatherDisplay:10.37,2013-05-14 23:31:00,
2013-05-14 19:36:00,58.6,45.6,29.72,ESE,106,4.6,4.6,62,0.00,CLR,,0.01,WeatherDisplay:10.37,2013-05-14 23:36:00,
2013-05-14 19:41:00,58.5,45.9,29.72,SE,130,0.0,0.0,63,0.00,CLR,,0.01,WeatherDisplay:10.37,2013-05-14 23:41:00,
2013-05-14 19:46:00,58.4,45.4,29.72,ESE,117,5.0,5.0,62,0.00,CLR,,0.01,WeatherDisplay:10.37,2013-05-14 23:46:00,
2013-05-14 19:51:00,58.3,45.8,29.72,SE,132,3.5,3.5,63,0.00,CLR,,0.01,WeatherDisplay:10.37,2013-05-14 23:51:00,
2013-05-14 19:56:00,58.3,45.3,29.71,ESE,105,0.0,0.0,62,0.00,CLR,,0.01,WeatherDisplay:10.37,2013-05-14 23:56:00,
2013-05-14 20:01:00,58.3,45.8,29.71,ESE,105,1.1,0.0,63,0.00,CLR,,0.01,WeatherDisplay:10.37,2013-05-15 00:01:00,
2013-05-14 20:06:00,58.1,45.6,29.72,NNE,32,2.3,2.3,63,0.00,CLR,,0.01,WeatherDisplay:10.37,2013-05-15 00:06:00,
2013-05-14 20:11:00,57.8,45.7,29.72,East,96,1.1,1.2,64,0.00,CLR,,0.01,WeatherDisplay:10.37,2013-05-15 00:11:00,
2013-05-14 20:16:00,57.6,45.1,29.71,ESE,106,3.5,0.0,63,0.00,CLR,,0.01,WeatherDisplay:10.37,2013-05-15 00:16:00,
2013-05-14 20:21:00,57.3,45.2,29.71,ESE,105,0.0,0.0,64,0.00,CLR,,0.01,WeatherDisplay:10.37,2013-05-15 00:21:00,
2013-05-14 20:26:00,57.1,45.4,29.70,ESE,103,0.0,0.0,65,0.00,CLR,,0.01,WeatherDisplay:10.37,2013-05-15 00:26:00,
2013-05-14 20:31:00,56.9,45.3,29.70,ESE,103,0.0,0.0,65,0.00,CLR,,0.01,WeatherDisplay:10.37,2013-05-15 00:31:00,
2013-05-14 20:36:00,56.7,45.5,29.70,East,101,3.0,3.0,66,0.00,CLR,,0.01,WeatherDisplay:10.37,2013-05-15 00:36:00,
2013-05-14 20:41:00,56.5,45.3,29.70,East,100,2.3,2.3,66,0.00,CLR,,0.01,WeatherDisplay:10.37,2013-05-15 00:41:00,
2013-05-14 20:46:00,56.4,44.8,29.69,ESE,109,3.5,3.5,65,0.00,CLR,,0.01,WeatherDisplay:10.37,2013-05-15 00:46:00,
2013-05-14 20:51:00,56.3,45.1,29.68,ESE,123,3.0,3.0,66,0.00,CLR,,0.01,WeatherDisplay:10.37,2013-05-15 00:51:00,
2013-05-14 20:56:00,56.1,44.9,29.68,East,80,2.3,2.3,66,0.00,CLR,,0.01,WeatherDisplay:10.37,2013-05-15 00:56:00,
2013-05-14 21:01:00,55.9,44.7,29.68,ENE,61,5.8,5.8,66,0.00,CLR,,0.01,WeatherDisplay:10.37,2013-05-15 01:01:00,
2013-05-14 21:06:00,55.7,44.9,29.67,NE,46,4.6,4.6,67,0.00,CLR,,0.01,WeatherDisplay:10.37,2013-05-15 01:06:00,
2013-05-14 21:11:00,55.6,44.8,29.67,NE,51,3.5,3.5,67,0.00,CLR,,0.01,WeatherDisplay:10.37,2013-05-15 01:11:00,
2013-05-14 21:16:00,55.5,45.1,29.67,East,88,3.5,3.5,68,0.00,CLR,,0.01,WeatherDisplay:10.37,2013-05-15 01:16:00,
2013-05-14 21:21:00,55.4,45.0,29.67,East,97,9.2,9.2,68,0.00,CLR,,0.01,WeatherDisplay:10.37,2013-05-15 01:21:00,
2013-05-14 21:26:00,55.3,44.5,29.67,ENE,78,4.6,4.6,67,0.00,CLR,,0.01,WeatherDisplay:10.37,2013-05-15 01:26:00,
2013-05-14 21:31:00,55.3,44.9,29.67,ENE,74,3.5,0.0,68,0.00,CLR,,0.01,WeatherDisplay:10.37,2013-05-15 01:31:00,
2013-05-14 21:36:00,55.3,44.9,29.68,East,89,3.5,3.5,68,0.00,CLR,,0.01,WeatherDisplay:10.37,2013-05-15 01:36:00,
2013-05-14 21:41:00,55.2,44.8,29.67,SE,127,5.0,5.0,68,0.00,CLR,,0.01,WeatherDisplay:10.37,2013-05-15 01:41:00,
2013-05-14 21:46:00,55.2,44.8,29.68,ESE,102,4.0,4.0,68,0.00,CLR,,0.01,WeatherDisplay:10.37,2013-05-15 01:46:00,
2013-05-14 21:51:00,55.1,44.7,29.68,East,86,3.5,0.0,68,0.00,CLR,,0.01,WeatherDisplay:10.37,2013-05-15 01:51:00,
2013-05-14 21:56:00,55.1,45.1,29.69,East,86,1.1,0.0,69,0.00,CLR,,0.01,WeatherDisplay:10.37,2013-05-15 01:56:00,
2013-05-14 22:01:00,55.0,45.0,29.69,East,86,0.0,0.0,69,0.00,CLR,,0.01,WeatherDisplay:10.37,2013-05-15 02:01:00,
2013-05-14 22:06:00,54.9,44.9,29.69,East,98,1.0,1.0,69,0.00,CLR,,0.01,WeatherDisplay:10.37,2013-05-15 02:06:00,
2013-05-14 22:11:00,54.9,45.3,29.70,East,98,0.0,0.0,70,0.00,CLR,,0.01,WeatherDisplay:10.37,2013-05-15 02:11:00,
2013-05-14 22:16:00,54.8,45.2,29.70,East,98,0.0,0.0,70,0.00,CLR,,0.01,WeatherDisplay:10.37,2013-05-15 02:16:00,
2013-05-14 22:21:00,54.7,45.5,29.69,East,98,1.1,0.0,71,0.00,CLR,,0.01,WeatherDisplay:10.37,2013-05-15 02:21:00,
2013-05-14 22:26:00,54.6,45.4,29.69,East,96,0.0,0.1,71,0.00,CLR,,0.01,WeatherDisplay:10.37,2013-05-15 02:26:00,
2013-05-14 22:31:00,54.6,45.8,29.69,East,97,0.0,0.0,72,0.00,CLR,,0.01,WeatherDisplay:10.37,2013-05-15 02:31:00,
2013-05-14 22:36:00,54.5,45.7,29.69,East,96,0.0,0.0,72,0.00,CLR,,0.01,WeatherDisplay:10.37,2013-05-15 02:36:00,
2013-05-14 22:41:00,54.5,46.0,29.69,East,96,1.1,0.0,73,0.00,CLR,,0.01,WeatherDisplay:10.37,2013-05-15 02:41:00,
2013-05-14 22:46:00,54.3,46.2,29.68,ENE,71,3.5,3.5,74,0.00,CLR,,0.01,WeatherDisplay:10.37,2013-05-15 02:46:00,
2013-05-14 22:51:00,54.1,46.3,29.67,ENE,71,0.0,0.0,75,0.00,CLR,,0.01,WeatherDisplay:10.37,2013-05-15 02:51:00,
2013-05-14 22:56:00,54.0,46.3,29.70,ENE,71,0.0,0.0,75,0.00,CLR,,0.01,WeatherDisplay:10.37,2013-05-15 02:56:00,
2013-05-14 23:01:00,53.8,46.1,29.70,ENE,71,0.0,0.0,75,0.00,CLR,,0.01,WeatherDisplay:10.37,2013-05-15 03:01:00,
2013-05-14 23:06:00,53.5,46.5,29.70,ENE,71,0.0,0.0,77,0.00,CLR,,0.01,WeatherDisplay:10.37,2013-05-15 03:06:00,
2013-05-14 23:11:00,53.2,47.2,29.69,ENE,71,0.0,0.0,80,0.00,CLR,,0.01,WeatherDisplay:10.37,2013-05-15 03:11:00,
2013-05-14 23:16:00,52.9,46.9,29.70,ENE,71,0.0,0.0,80,0.00,CLR,,0.01,WeatherDisplay:10.37,2013-05-15 03:16:00,
2013-05-14 23:21:00,52.7,47.7,29.67,ENE,71,0.0,0.0,83,0.00,CLR,,0.01,WeatherDisplay:10.37,2013-05-15 03:21:00,
2013-05-14 23:26:00,52.4,47.4,29.67,SSE,154,1.0,0.0,83,0.00,CLR,,0.01,WeatherDisplay:10.37,2013-05-15 03:26:00,
2013-05-14 23:31:00,52.3,47.0,29.67,SSE,154,1.1,0.0,82,0.00,CLR,,0.01,WeatherDisplay:10.37,2013-05-15 03:31:00,
2013-05-14 23:36:00,52.5,47.2,29.67,SSE,154,0.0,0.0,82,0.00,CLR,,0.01,WeatherDisplay:10.37,2013-05-15 03:36:00,
2013-05-14 23:41:00,52.4,47.7,29.67,SSE,154,0.0,0.0,84,0.00,CLR,,0.01,WeatherDisplay:10.37,2013-05-15 03:41:00,
2013-05-14 23:46:00,52.1,48.0,29.67,SSE,154,0.0,0.0,86,0.00,CLR,,0.01,WeatherDisplay:10.37,2013-05-15 03:46:00,
2013-05-14 23:51:00,51.7,47.6,29.67,SE,126,3.5,3.5,86,0.00,CLR,,0.01,WeatherDisplay:10.37,2013-05-15 03:51:00,
2013-05-14 23:56:00,51.6,47.5,29.67,SE,126,1.0,1.0,86,0.00,CLR,,0.01,WeatherDisplay:10.37,2013-05-15 03:56:00,